sensor_id;sensor_type;location;lat;lon;timestamp;P1;durP1;ratioP1;P2;durP2;ratioP2
50733;SDS011;36701;51.798;19.474;2023-06-22T02:02:41;21.92;;;17.08;;
50733;SDS011;36701;51.798;19.474;2023-06-22T02:05:09;19.33;;;16.42;;
50733;SDS011;36701;51.798;19.474;2023-06-22T02:07:41;19.45;;;15.35;;
50733;SDS011;36701;51.798;19.474;2023-06-22T02:12:34;22.50;;;16.48;;
50733;SDS011;36701;51.798;19.474;2023-06-22T02:15:01;21.05;;;16.35;;
50733;SDS011;36701;51.798;19.474;2023-06-22T02:17:27;20.25;;;17.02;;
50733;SDS011;36701;51.798;19.474;2023-06-22T02:19:54;21.87;;;16.00;;
50733;SDS011;36701;51.798;19.474;2023-06-22T02:22:20;22.85;;;16.30;;
50733;SDS011;36701;51.798;19.474;2023-06-22T02:24:46;22.17;;;16.00;;
50733;SDS011;36701;51.798;19.474;2023-06-22T02:27:12;21.10;;;16.00;;
50733;SDS011;36701;51.798;19.474;2023-06-22T02:29:38;20.60;;;16.33;;
50733;SDS011;36701;51.798;19.474;2023-06-22T02:32:04;19.92;;;16.23;;
50733;SDS011;36701;51.798;19.474;2023-06-22T02:34:31;22.20;;;16.12;;
50733;SDS011;36701;51.798;19.474;2023-06-22T02:36:59;22.23;;;15.02;;
50733;SDS011;36701;51.798;19.474;2023-06-22T02:39:27;28.10;;;16.35;;
50733;SDS011;36701;51.798;19.474;2023-06-22T02:41:53;21.50;;;15.25;;
50733;SDS011;36701;51.798;19.474;2023-06-22T02:44:22;23.30;;;15.77;;
50733;SDS011;36701;51.798;19.474;2023-06-22T02:46:48;24.80;;;15.80;;
50733;SDS011;36701;51.798;19.474;2023-06-22T02:49:14;23.25;;;16.48;;
50733;SDS011;36701;51.798;19.474;2023-06-22T02:51:42;22.00;;;15.32;;
50733;SDS011;36701;51.798;19.474;2023-06-22T02:54:08;18.62;;;15.98;;
50733;SDS011;36701;51.798;19.474;2023-06-22T02:56:35;21.12;;;15.50;;
50733;SDS011;36701;51.798;19.474;2023-06-22T02:59:02;16.23;;;14.07;;
50733;SDS011;36701;51.798;19.474;2023-06-22T03:01:32;19.48;;;14.50;;
50733;SDS011;36701;51.798;19.474;2023-06-22T03:04:04;22.05;;;14.75;;
50733;SDS011;36701;51.798;19.474;2023-06-22T03:06:30;19.60;;;14.02;;
50733;SDS011;36701;51.798;19.474;2023-06-22T03:09:00;17.62;;;14.48;;
50733;SDS011;36701;51.798;19.474;2023-06-22T03:11:27;18.50;;;14.35;;
50733;SDS011;36701;51.798;19.474;2023-06-22T03:13:54;18.85;;;13.93;;
50733;SDS011;36701;51.798;19.474;2023-06-22T03:16:20;21.17;;;14.05;;
50733;SDS011;36701;51.798;19.474;2023-06-22T03:18:47;21.77;;;13.95;;
50733;SDS011;36701;51.798;19.474;2023-06-22T03:21:13;17.50;;;13.48;;
50733;SDS011;36701;51.798;19.474;2023-06-22T03:23:41;15.38;;;12.25;;
50733;SDS011;36701;51.798;19.474;2023-06-22T03:26:08;17.62;;;12.68;;
50733;SDS011;36701;51.798;19.474;2023-06-22T03:28:35;16.73;;;13.23;;
50733;SDS011;36701;51.798;19.474;2023-06-22T03:31:01;16.27;;;13.10;;
50733;SDS011;36701;51.798;19.474;2023-06-22T03:33:28;13.80;;;11.82;;
50733;SDS011;36701;51.798;19.474;2023-06-22T03:35:57;15.18;;;13.07;;
50733;SDS011;36701;51.798;19.474;2023-06-22T03:38:23;15.30;;;11.93;;
50733;SDS011;36701;51.798;19.474;2023-06-22T03:40:52;15.82;;;11.57;;
50733;SDS011;36701;51.798;19.474;2023-06-22T03:43:20;21.85;;;10.88;;
50733;SDS011;36701;51.798;19.474;2023-06-22T03:45:45;14.52;;;11.07;;
50733;SDS011;36701;51.798;19.474;2023-06-22T03:48:13;14.55;;;11.82;;
50733;SDS011;36701;51.798;19.474;2023-06-22T03:50:39;13.50;;;10.95;;
50733;SDS011;36701;51.798;19.474;2023-06-22T03:53:05;16.23;;;10.98;;
50733;SDS011;36701;51.798;19.474;2023-06-22T03:55:31;15.27;;;10.43;;
50733;SDS011;36701;51.798;19.474;2023-06-22T03:57:57;14.07;;;10.73;;
50733;SDS011;36701;51.798;19.474;2023-06-22T04:00:24;13.23;;;10.63;;
50733;SDS011;36701;51.798;19.474;2023-06-22T04:02:50;17.23;;;11.18;;
50733;SDS011;36701;51.798;19.474;2023-06-22T04:05:16;12.70;;;10.43;;
50733;SDS011;36701;51.798;19.474;2023-06-22T04:07:44;18.40;;;11.10;;
50733;SDS011;36701;51.798;19.474;2023-06-22T04:10:11;17.23;;;11.20;;
50733;SDS011;36701;51.798;19.474;2023-06-22T04:12:37;14.32;;;10.25;;
50733;SDS011;36701;51.798;19.474;2023-06-22T04:15:03;17.95;;;10.75;;
50733;SDS011;36701;51.798;19.474;2023-06-22T04:17:29;19.85;;;9.57;;
50733;SDS011;36701;51.798;19.474;2023-06-22T04:19:55;15.82;;;9.93;;
50733;SDS011;36701;51.798;19.474;2023-06-22T04:22:21;13.75;;;10.35;;
50733;SDS011;36701;51.798;19.474;2023-06-22T04:24:48;13.48;;;10.48;;
50733;SDS011;36701;51.798;19.474;2023-06-22T04:27:14;14.10;;;10.23;;
50733;SDS011;36701;51.798;19.474;2023-06-22T04:29:40;12.57;;;9.75;;
50733;SDS011;36701;51.798;19.474;2023-06-22T04:32:15;16.40;;;10.27;;
50733;SDS011;36701;51.798;19.474;2023-06-22T04:34:41;11.25;;;9.40;;
50733;SDS011;36701;51.798;19.474;2023-06-22T04:37:07;12.48;;;8.50;;
50733;SDS011;36701;51.798;19.474;2023-06-22T04:39:33;13.27;;;8.55;;
50733;SDS011;36701;51.798;19.474;2023-06-22T04:42:00;10.57;;;8.10;;
50733;SDS011;36701;51.798;19.474;2023-06-22T04:44:26;10.60;;;8.05;;
50733;SDS011;36701;51.798;19.474;2023-06-22T04:46:54;10.15;;;7.95;;
50733;SDS011;36701;51.798;19.474;2023-06-22T04:49:25;11.00;;;7.00;;
50733;SDS011;36701;51.798;19.474;2023-06-22T04:52:02;9.48;;;8.13;;
50733;SDS011;36701;51.798;19.474;2023-06-22T04:54:28;10.27;;;7.35;;
50733;SDS011;36701;51.798;19.474;2023-06-22T04:56:55;8.98;;;7.12;;
50733;SDS011;36701;51.798;19.474;2023-06-22T04:59:24;17.25;;;7.70;;
50733;SDS011;36701;51.798;19.474;2023-06-22T05:01:54;10.23;;;7.72;;
50733;SDS011;36701;51.798;19.474;2023-06-22T05:04:21;12.45;;;8.05;;
50733;SDS011;36701;51.798;19.474;2023-06-22T05:06:56;7.20;;;6.53;;
50733;SDS011;36701;51.798;19.474;2023-06-22T05:09:22;17.23;;;7.60;;
50733;SDS011;36701;51.798;19.474;2023-06-22T05:11:49;10.93;;;7.35;;
50733;SDS011;36701;51.798;19.474;2023-06-22T05:14:22;9.50;;;7.00;;
50733;SDS011;36701;51.798;19.474;2023-06-22T05:16:54;10.82;;;6.85;;
50733;SDS011;36701;51.798;19.474;2023-06-22T05:19:24;9.25;;;7.22;;
50733;SDS011;36701;51.798;19.474;2023-06-22T05:21:51;8.90;;;7.60;;
50733;SDS011;36701;51.798;19.474;2023-06-22T05:24:17;9.07;;;7.28;;
50733;SDS011;36701;51.798;19.474;2023-06-22T05:26:43;8.48;;;6.82;;
50733;SDS011;36701;51.798;19.474;2023-06-22T05:29:09;9.30;;;7.03;;
50733;SDS011;36701;51.798;19.474;2023-06-22T05:31:36;8.07;;;6.53;;
50733;SDS011;36701;51.798;19.474;2023-06-22T05:34:02;9.93;;;7.37;;
50733;SDS011;36701;51.798;19.474;2023-06-22T05:36:28;10.70;;;7.70;;
50733;SDS011;36701;51.798;19.474;2023-06-22T05:38:56;11.07;;;7.00;;
50733;SDS011;36701;51.798;19.474;2023-06-22T05:41:22;9.30;;;6.57;;
50733;SDS011;36701;51.798;19.474;2023-06-22T05:43:48;24.40;;;7.75;;
50733;SDS011;36701;51.798;19.474;2023-06-22T05:46:14;15.07;;;8.27;;
50733;SDS011;36701;51.798;19.474;2023-06-22T05:48:40;10.30;;;7.20;;
50733;SDS011;36701;51.798;19.474;2023-06-22T05:51:07;10.27;;;6.20;;
50733;SDS011;36701;51.798;19.474;2023-06-22T05:53:33;10.38;;;6.55;;
50733;SDS011;36701;51.798;19.474;2023-06-22T05:55:59;9.13;;;7.40;;
50733;SDS011;36701;51.798;19.474;2023-06-22T05:58:25;8.05;;;6.85;;
50733;SDS011;36701;51.798;19.474;2023-06-22T06:00:52;11.65;;;6.57;;
50733;SDS011;36701;51.798;19.474;2023-06-22T06:03:18;10.10;;;6.65;;
50733;SDS011;36701;51.798;19.474;2023-06-22T06:05:44;9.77;;;6.55;;
50733;SDS011;36701;51.798;19.474;2023-06-22T06:08:11;6.62;;;5.80;;
50733;SDS011;36701;51.798;19.474;2023-06-22T06:10:38;9.27;;;6.60;;
50733;SDS011;36701;51.798;19.474;2023-06-22T06:13:04;7.82;;;6.75;;
50733;SDS011;36701;51.798;19.474;2023-06-22T06:15:31;12.45;;;6.47;;
50733;SDS011;36701;51.798;19.474;2023-06-22T06:17:58;7.00;;;6.37;;
50733;SDS011;36701;51.798;19.474;2023-06-22T06:20:25;8.30;;;6.10;;
50733;SDS011;36701;51.798;19.474;2023-06-22T06:22:51;7.85;;;5.97;;
50733;SDS011;36701;51.798;19.474;2023-06-22T06:25:18;9.98;;;7.37;;
50733;SDS011;36701;51.798;19.474;2023-06-22T06:27:46;13.05;;;6.15;;
50733;SDS011;36701;51.798;19.474;2023-06-22T06:30:13;5.85;;;5.05;;
50733;SDS011;36701;51.798;19.474;2023-06-22T06:32:39;12.73;;;5.82;;
50733;SDS011;36701;51.798;19.474;2023-06-22T06:35:12;8.40;;;5.50;;
50733;SDS011;36701;51.798;19.474;2023-06-22T06:37:40;11.07;;;6.00;;
50733;SDS011;36701;51.798;19.474;2023-06-22T06:40:07;14.90;;;6.45;;
50733;SDS011;36701;51.798;19.474;2023-06-22T06:42:37;9.27;;;5.15;;
50733;SDS011;36701;51.798;19.474;2023-06-22T06:45:04;9.45;;;6.07;;
50733;SDS011;36701;51.798;19.474;2023-06-22T06:47:30;5.03;;;4.62;;
50733;SDS011;36701;51.798;19.474;2023-06-22T06:49:57;9.98;;;4.90;;
50733;SDS011;36701;51.798;19.474;2023-06-22T06:52:23;6.72;;;5.97;;
50733;SDS011;36701;51.798;19.474;2023-06-22T06:54:49;13.23;;;4.97;;
50733;SDS011;36701;51.798;19.474;2023-06-22T06:57:17;6.90;;;4.32;;
50733;SDS011;36701;51.798;19.474;2023-06-22T06:59:44;6.87;;;4.93;;
50733;SDS011;36701;51.798;19.474;2023-06-22T07:02:10;7.37;;;5.15;;
50733;SDS011;36701;51.798;19.474;2023-06-22T07:04:36;13.95;;;4.97;;
50733;SDS011;36701;51.798;19.474;2023-06-22T07:07:03;4.30;;;3.90;;
50733;SDS011;36701;51.798;19.474;2023-06-22T07:09:29;6.75;;;4.03;;
50733;SDS011;36701;51.798;19.474;2023-06-22T07:11:55;10.55;;;4.95;;
50733;SDS011;36701;51.798;19.474;2023-06-22T07:14:21;19.25;;;4.90;;
50733;SDS011;36701;51.798;19.474;2023-06-22T07:16:47;10.88;;;4.05;;
50733;SDS011;36701;51.798;19.474;2023-06-22T07:19:16;6.90;;;4.37;;
50733;SDS011;36701;51.798;19.474;2023-06-22T07:21:50;6.97;;;4.53;;
50733;SDS011;36701;51.798;19.474;2023-06-22T07:24:16;7.35;;;3.97;;
50733;SDS011;36701;51.798;19.474;2023-06-22T07:26:46;5.22;;;3.95;;
50733;SDS011;36701;51.798;19.474;2023-06-22T07:29:19;11.30;;;4.43;;
50733;SDS011;36701;51.798;19.474;2023-06-22T07:31:49;6.15;;;4.20;;
50733;SDS011;36701;51.798;19.474;2023-06-22T07:34:27;6.00;;;2.97;;
50733;SDS011;36701;51.798;19.474;2023-06-22T07:36:53;11.38;;;3.20;;
50733;SDS011;36701;51.798;19.474;2023-06-22T07:39:19;4.35;;;2.87;;
50733;SDS011;36701;51.798;19.474;2023-06-22T07:41:51;5.55;;;3.80;;
50733;SDS011;36701;51.798;19.474;2023-06-22T07:44:25;3.67;;;3.35;;
50733;SDS011;36701;51.798;19.474;2023-06-22T07:46:51;6.00;;;3.10;;
50733;SDS011;36701;51.798;19.474;2023-06-22T07:49:17;5.72;;;3.10;;
50733;SDS011;36701;51.798;19.474;2023-06-22T07:51:43;5.53;;;3.25;;
50733;SDS011;36701;51.798;19.474;2023-06-22T07:54:11;3.75;;;3.42;;
50733;SDS011;36701;51.798;19.474;2023-06-22T07:56:37;3.60;;;2.90;;
50733;SDS011;36701;51.798;19.474;2023-06-22T07:59:03;7.75;;;2.65;;
50733;SDS011;36701;51.798;19.474;2023-06-22T08:01:32;10.18;;;2.85;;
50733;SDS011;36701;51.798;19.474;2023-06-22T08:03:59;4.72;;;2.97;;
50733;SDS011;36701;51.798;19.474;2023-06-22T08:06:26;6.07;;;2.72;;
50733;SDS011;36701;51.798;19.474;2023-06-22T08:08:53;4.90;;;2.80;;
50733;SDS011;36701;51.798;19.474;2023-06-22T08:11:20;7.47;;;3.47;;
50733;SDS011;36701;51.798;19.474;2023-06-22T08:13:48;5.87;;;2.78;;
50733;SDS011;36701;51.798;19.474;2023-06-22T08:16:14;12.15;;;2.85;;
50733;SDS011;36701;51.798;19.474;2023-06-22T08:18:41;5.12;;;2.80;;
50733;SDS011;36701;51.798;19.474;2023-06-22T08:21:07;7.75;;;2.83;;
50733;SDS011;36701;51.798;19.474;2023-06-22T08:23:33;5.12;;;3.12;;
50733;SDS011;36701;51.798;19.474;2023-06-22T08:26:00;5.07;;;4.00;;
50733;SDS011;36701;51.798;19.474;2023-06-22T08:28:30;14.47;;;3.13;;
50733;SDS011;36701;51.798;19.474;2023-06-22T08:30:57;2.78;;;2.58;;
50733;SDS011;36701;51.798;19.474;2023-06-22T08:33:23;6.43;;;2.87;;
50733;SDS011;36701;51.798;19.474;2023-06-22T08:35:57;9.43;;;2.90;;
50733;SDS011;36701;51.798;19.474;2023-06-22T08:38:27;6.82;;;3.50;;
50733;SDS011;36701;51.798;19.474;2023-06-22T08:40:53;6.93;;;2.60;;
50733;SDS011;36701;51.798;19.474;2023-06-22T08:43:22;7.12;;;3.00;;
50733;SDS011;36701;51.798;19.474;2023-06-22T08:45:49;3.28;;;2.72;;
50733;SDS011;36701;51.798;19.474;2023-06-22T08:48:16;2.47;;;2.28;;
50733;SDS011;36701;51.798;19.474;2023-06-22T08:50:41;7.65;;;2.85;;
50733;SDS011;36701;51.798;19.474;2023-06-22T08:53:08;4.70;;;2.67;;
50733;SDS011;36701;51.798;19.474;2023-06-22T08:55:34;8.02;;;2.78;;
50733;SDS011;36701;51.798;19.474;2023-06-22T08:58:02;10.73;;;3.53;;
50733;SDS011;36701;51.798;19.474;2023-06-22T09:00:30;2.72;;;2.25;;
50733;SDS011;36701;51.798;19.474;2023-06-22T09:02:58;8.63;;;2.33;;
50733;SDS011;36701;51.798;19.474;2023-06-22T09:05:24;4.93;;;3.47;;
50733;SDS011;36701;51.798;19.474;2023-06-22T09:07:56;4.68;;;3.28;;
50733;SDS011;36701;51.798;19.474;2023-06-22T09:10:22;6.60;;;2.20;;
50733;SDS011;36701;51.798;19.474;2023-06-22T09:12:48;4.82;;;2.40;;
50733;SDS011;36701;51.798;19.474;2023-06-22T09:15:14;4.93;;;2.10;;
50733;SDS011;36701;51.798;19.474;2023-06-22T09:17:40;2.70;;;2.50;;
50733;SDS011;36701;51.798;19.474;2023-06-22T09:20:07;2.28;;;2.17;;
50733;SDS011;36701;51.798;19.474;2023-06-22T09:22:36;2.05;;;1.95;;
50733;SDS011;36701;51.798;19.474;2023-06-22T09:25:02;1.70;;;1.60;;
50733;SDS011;36701;51.798;19.474;2023-06-22T09:27:29;3.28;;;1.80;;
50733;SDS011;36701;51.798;19.474;2023-06-22T09:29:55;6.30;;;2.40;;
50733;SDS011;36701;51.798;19.474;2023-06-22T09:32:24;3.25;;;2.85;;
50733;SDS011;36701;51.798;19.474;2023-06-22T09:34:51;4.75;;;2.45;;
50733;SDS011;36701;51.798;19.474;2023-06-22T09:37:18;2.30;;;2.10;;
50733;SDS011;36701;51.798;19.474;2023-06-22T09:39:44;2.12;;;1.65;;
50733;SDS011;36701;51.798;19.474;2023-06-22T09:42:11;1.92;;;1.83;;
50733;SDS011;36701;51.798;19.474;2023-06-22T09:44:39;2.97;;;2.00;;
50733;SDS011;36701;51.798;19.474;2023-06-22T09:47:05;2.45;;;1.92;;
50733;SDS011;36701;51.798;19.474;2023-06-22T09:49:31;2.60;;;2.40;;
50733;SDS011;36701;51.798;19.474;2023-06-22T09:51:58;4.82;;;2.45;;
50733;SDS011;36701;51.798;19.474;2023-06-22T09:54:24;4.00;;;2.58;;
50733;SDS011;36701;51.798;19.474;2023-06-22T09:56:50;4.20;;;2.40;;
50733;SDS011;36701;51.798;19.474;2023-06-22T09:59:17;7.03;;;2.72;;
50733;SDS011;36701;51.798;19.474;2023-06-22T10:01:43;5.20;;;2.47;;
50733;SDS011;36701;51.798;19.474;2023-06-22T10:04:09;2.87;;;2.12;;
50733;SDS011;36701;51.798;19.474;2023-06-22T10:06:35;2.60;;;2.25;;
50733;SDS011;36701;51.798;19.474;2023-06-22T10:09:01;4.85;;;1.98;;
50733;SDS011;36701;51.798;19.474;2023-06-22T10:11:28;2.03;;;1.83;;
50733;SDS011;36701;51.798;19.474;2023-06-22T10:13:56;2.17;;;1.98;;
50733;SDS011;36701;51.798;19.474;2023-06-22T10:16:24;1.92;;;1.83;;
50733;SDS011;36701;51.798;19.474;2023-06-22T10:18:50;4.45;;;2.17;;
50733;SDS011;36701;51.798;19.474;2023-06-22T10:21:16;3.15;;;1.90;;
50733;SDS011;36701;51.798;19.474;2023-06-22T10:23:42;5.62;;;2.22;;
50733;SDS011;36701;51.798;19.474;2023-06-22T10:26:08;5.40;;;2.47;;
50733;SDS011;36701;51.798;19.474;2023-06-22T10:28:34;3.45;;;1.80;;
50733;SDS011;36701;51.798;19.474;2023-06-22T10:31:00;4.97;;;2.65;;
50733;SDS011;36701;51.798;19.474;2023-06-22T10:33:26;7.03;;;2.25;;
50733;SDS011;36701;51.798;19.474;2023-06-22T10:35:53;2.47;;;2.25;;
50733;SDS011;36701;51.798;19.474;2023-06-22T10:38:18;5.50;;;2.10;;
50733;SDS011;36701;51.798;19.474;2023-06-22T10:40:45;7.15;;;2.12;;
50733;SDS011;36701;51.798;19.474;2023-06-22T10:43:11;2.90;;;2.62;;
50733;SDS011;36701;51.798;19.474;2023-06-22T10:45:37;8.30;;;2.40;;
50733;SDS011;36701;51.798;19.474;2023-06-22T10:48:04;4.47;;;1.98;;
50733;SDS011;36701;51.798;19.474;2023-06-22T10:50:30;2.05;;;1.83;;
50733;SDS011;36701;51.798;19.474;2023-06-22T10:52:56;6.12;;;2.37;;
50733;SDS011;36701;51.798;19.474;2023-06-22T10:55:22;3.67;;;2.17;;
50733;SDS011;36701;51.798;19.474;2023-06-22T10:57:48;2.12;;;1.85;;
50733;SDS011;36701;51.798;19.474;2023-06-22T11:03:04;2.50;;;2.10;;
50733;SDS011;36701;51.798;19.474;2023-06-22T11:05:31;5.10;;;2.70;;
50733;SDS011;36701;51.798;19.474;2023-06-22T11:07:57;10.43;;;2.40;;
50733;SDS011;36701;51.798;19.474;2023-06-22T11:10:23;2.67;;;2.00;;
50733;SDS011;36701;51.798;19.474;2023-06-22T11:12:49;2.37;;;2.08;;
50733;SDS011;36701;51.798;19.474;2023-06-22T11:15:16;4.82;;;2.37;;
50733;SDS011;36701;51.798;19.474;2023-06-22T11:17:41;2.25;;;2.10;;
50733;SDS011;36701;51.798;19.474;2023-06-22T11:20:08;2.50;;;2.40;;
50733;SDS011;36701;51.798;19.474;2023-06-22T11:22:37;11.12;;;3.20;;
50733;SDS011;36701;51.798;19.474;2023-06-22T11:25:06;5.97;;;2.60;;
50733;SDS011;36701;51.798;19.474;2023-06-22T11:27:32;5.20;;;2.15;;
50733;SDS011;36701;51.798;19.474;2023-06-22T11:29:58;1.95;;;1.80;;
50733;SDS011;36701;51.798;19.474;2023-06-22T11:32:24;1.70;;;1.60;;
50733;SDS011;36701;51.798;19.474;2023-06-22T11:34:51;3.72;;;2.10;;
50733;SDS011;36701;51.798;19.474;2023-06-22T11:37:17;2.08;;;1.98;;
50733;SDS011;36701;51.798;19.474;2023-06-22T11:39:43;2.42;;;2.22;;
50733;SDS011;36701;51.798;19.474;2023-06-22T11:42:09;2.50;;;2.25;;
50733;SDS011;36701;51.798;19.474;2023-06-22T11:44:36;7.82;;;1.98;;
50733;SDS011;36701;51.798;19.474;2023-06-22T11:47:02;2.40;;;2.22;;
50733;SDS011;36701;51.798;19.474;2023-06-22T11:49:30;2.55;;;2.25;;
50733;SDS011;36701;51.798;19.474;2023-06-22T11:51:56;2.37;;;1.85;;
50733;SDS011;36701;51.798;19.474;2023-06-22T11:54:23;2.42;;;2.25;;
50733;SDS011;36701;51.798;19.474;2023-06-22T11:56:49;13.75;;;2.62;;
50733;SDS011;36701;51.798;19.474;2023-06-22T11:59:15;4.47;;;2.10;;
50733;SDS011;36701;51.798;19.474;2023-06-22T12:01:41;8.45;;;2.55;;
50733;SDS011;36701;51.798;19.474;2023-06-22T12:04:08;6.07;;;1.95;;
50733;SDS011;36701;51.798;19.474;2023-06-22T12:06:37;2.22;;;2.12;;
50733;SDS011;36701;51.798;19.474;2023-06-22T12:09:04;2.58;;;2.37;;
50733;SDS011;36701;51.798;19.474;2023-06-22T12:11:33;4.22;;;2.45;;
50733;SDS011;36701;51.798;19.474;2023-06-22T12:13:59;9.65;;;2.35;;
50733;SDS011;36701;51.798;19.474;2023-06-22T12:16:30;6.95;;;2.40;;
50733;SDS011;36701;51.798;19.474;2023-06-22T12:18:57;9.90;;;2.20;;
50733;SDS011;36701;51.798;19.474;2023-06-22T12:21:23;3.85;;;2.65;;
50733;SDS011;36701;51.798;19.474;2023-06-22T12:23:50;2.90;;;2.80;;
50733;SDS011;36701;51.798;19.474;2023-06-22T12:26:17;3.70;;;2.67;;
50733;SDS011;36701;51.798;19.474;2023-06-22T12:28:43;5.60;;;2.95;;
50733;SDS011;36701;51.798;19.474;2023-06-22T12:31:09;3.40;;;2.85;;
50733;SDS011;36701;51.798;19.474;2023-06-22T12:33:35;2.85;;;2.65;;
50733;SDS011;36701;51.798;19.474;2023-06-22T12:36:01;12.27;;;2.65;;
50733;SDS011;36701;51.798;19.474;2023-06-22T12:38:27;10.30;;;3.20;;
50733;SDS011;36701;51.798;19.474;2023-06-22T12:40:54;3.47;;;3.12;;
50733;SDS011;36701;51.798;19.474;2023-06-22T12:43:20;5.18;;;2.30;;
50733;SDS011;36701;51.798;19.474;2023-06-22T12:45:46;5.82;;;3.83;;
50733;SDS011;36701;51.798;19.474;2023-06-22T12:48:12;9.77;;;2.10;;
50733;SDS011;36701;51.798;19.474;2023-06-22T12:50:39;2.85;;;2.65;;
50733;SDS011;36701;51.798;19.474;2023-06-22T12:53:05;2.60;;;2.40;;
50733;SDS011;36701;51.798;19.474;2023-06-22T12:55:32;3.25;;;2.53;;
50733;SDS011;36701;51.798;19.474;2023-06-22T12:57:58;5.95;;;2.50;;
50733;SDS011;36701;51.798;19.474;2023-06-22T13:00:24;3.37;;;2.60;;
50733;SDS011;36701;51.798;19.474;2023-06-22T13:02:51;7.15;;;2.80;;
50733;SDS011;36701;51.798;19.474;2023-06-22T13:05:17;2.65;;;2.20;;
50733;SDS011;36701;51.798;19.474;2023-06-22T13:07:43;3.05;;;2.78;;
50733;SDS011;36701;51.798;19.474;2023-06-22T13:10:09;3.20;;;3.00;;
50733;SDS011;36701;51.798;19.474;2023-06-22T13:12:35;2.65;;;2.55;;
50733;SDS011;36701;51.798;19.474;2023-06-22T13:15:01;6.32;;;2.65;;
50733;SDS011;36701;51.798;19.474;2023-06-22T13:17:29;2.95;;;2.58;;
50733;SDS011;36701;51.798;19.474;2023-06-22T13:19:55;4.78;;;2.70;;
50733;SDS011;36701;51.798;19.474;2023-06-22T13:24:55;5.93;;;2.50;;
50733;SDS011;36701;51.798;19.474;2023-06-22T13:27:21;2.50;;;2.30;;
50733;SDS011;36701;51.798;19.474;2023-06-22T13:29:49;3.92;;;2.50;;
50733;SDS011;36701;51.798;19.474;2023-06-22T13:32:15;3.15;;;2.25;;
50733;SDS011;36701;51.798;19.474;2023-06-22T13:34:42;9.18;;;2.72;;
50733;SDS011;36701;51.798;19.474;2023-06-22T13:37:08;6.05;;;2.12;;
50733;SDS011;36701;51.798;19.474;2023-06-22T13:39:34;13.38;;;2.58;;
50733;SDS011;36701;51.798;19.474;2023-06-22T13:42:00;8.77;;;2.90;;
50733;SDS011;36701;51.798;19.474;2023-06-22T13:44:26;2.12;;;1.98;;
50733;SDS011;36701;51.798;19.474;2023-06-22T13:46:55;5.37;;;2.33;;
50733;SDS011;36701;51.798;19.474;2023-06-22T13:49:21;2.45;;;1.95;;
50733;SDS011;36701;51.798;19.474;2023-06-22T13:51:50;2.47;;;2.33;;
50733;SDS011;36701;51.798;19.474;2023-06-22T13:54:16;4.40;;;3.05;;
50733;SDS011;36701;51.798;19.474;2023-06-22T13:56:43;2.47;;;2.33;;
50733;SDS011;36701;51.798;19.474;2023-06-22T13:59:08;3.15;;;2.22;;
50733;SDS011;36701;51.798;19.474;2023-06-22T14:01:36;5.85;;;2.65;;
50733;SDS011;36701;51.798;19.474;2023-06-22T14:04:02;11.55;;;2.70;;
50733;SDS011;36701;51.798;19.474;2023-06-22T14:06:29;3.45;;;2.17;;
50733;SDS011;36701;51.798;19.474;2023-06-22T14:08:55;2.25;;;2.08;;
50733;SDS011;36701;51.798;19.474;2023-06-22T14:11:21;2.58;;;2.42;;
50733;SDS011;36701;51.798;19.474;2023-06-22T14:13:47;3.17;;;2.35;;
50733;SDS011;36701;51.798;19.474;2023-06-22T14:16:13;2.37;;;2.17;;
50733;SDS011;36701;51.798;19.474;2023-06-22T14:18:40;2.50;;;2.25;;
50733;SDS011;36701;51.798;19.474;2023-06-22T14:21:07;3.00;;;2.50;;
50733;SDS011;36701;51.798;19.474;2023-06-22T14:23:33;5.40;;;2.33;;
50733;SDS011;36701;51.798;19.474;2023-06-22T14:25:59;2.55;;;2.35;;
50733;SDS011;36701;51.798;19.474;2023-06-22T14:28:25;2.35;;;2.15;;
50733;SDS011;36701;51.798;19.474;2023-06-22T14:30:51;3.47;;;2.47;;
50733;SDS011;36701;51.798;19.474;2023-06-22T14:33:18;9.30;;;2.30;;
50733;SDS011;36701;51.798;19.474;2023-06-22T14:35:44;2.42;;;2.28;;
50733;SDS011;36701;51.798;19.474;2023-06-22T14:38:10;3.12;;;2.50;;
50733;SDS011;36701;51.798;19.474;2023-06-22T14:40:36;2.87;;;2.03;;
50733;SDS011;36701;51.798;19.474;2023-06-22T14:43:02;3.20;;;2.67;;
50733;SDS011;36701;51.798;19.474;2023-06-22T14:45:28;3.28;;;1.95;;
50733;SDS011;36701;51.798;19.474;2023-06-22T14:47:55;6.95;;;2.90;;
50733;SDS011;36701;51.798;19.474;2023-06-22T14:50:21;2.40;;;2.30;;
50733;SDS011;36701;51.798;19.474;2023-06-22T14:52:47;4.50;;;2.33;;
50733;SDS011;36701;51.798;19.474;2023-06-22T14:55:13;2.80;;;2.60;;
50733;SDS011;36701;51.798;19.474;2023-06-22T14:57:39;5.32;;;2.35;;
50733;SDS011;36701;51.798;19.474;2023-06-22T15:00:06;2.20;;;2.05;;
50733;SDS011;36701;51.798;19.474;2023-06-22T15:02:32;7.03;;;2.60;;
50733;SDS011;36701;51.798;19.474;2023-06-22T15:04:58;2.97;;;2.42;;
50733;SDS011;36701;51.798;19.474;2023-06-22T15:07:24;6.95;;;2.33;;
50733;SDS011;36701;51.798;19.474;2023-06-22T15:09:51;3.10;;;2.90;;
50733;SDS011;36701;51.798;19.474;2023-06-22T15:12:17;3.20;;;2.58;;
50733;SDS011;36701;51.798;19.474;2023-06-22T15:14:43;8.48;;;2.60;;
50733;SDS011;36701;51.798;19.474;2023-06-22T15:17:09;4.90;;;2.33;;
50733;SDS011;36701;51.798;19.474;2023-06-22T15:19:36;3.22;;;2.80;;
50733;SDS011;36701;51.798;19.474;2023-06-22T15:22:05;19.33;;;3.30;;
50733;SDS011;36701;51.798;19.474;2023-06-22T15:24:33;2.80;;;2.60;;
50733;SDS011;36701;51.798;19.474;2023-06-22T15:27:00;2.80;;;2.60;;
50733;SDS011;36701;51.798;19.474;2023-06-22T15:29:26;7.03;;;2.70;;
50733;SDS011;36701;51.798;19.474;2023-06-22T15:31:53;3.50;;;2.25;;
50733;SDS011;36701;51.798;19.474;2023-06-22T15:34:20;4.15;;;2.53;;
50733;SDS011;36701;51.798;19.474;2023-06-22T15:36:46;3.78;;;2.67;;
50733;SDS011;36701;51.798;19.474;2023-06-22T15:39:12;3.50;;;2.53;;
50733;SDS011;36701;51.798;19.474;2023-06-22T15:41:41;3.78;;;2.37;;
50733;SDS011;36701;51.798;19.474;2023-06-22T15:44:08;5.50;;;2.60;;
50733;SDS011;36701;51.798;19.474;2023-06-22T15:46:34;2.75;;;2.55;;
50733;SDS011;36701;51.798;19.474;2023-06-22T15:49:01;4.10;;;2.80;;
50733;SDS011;36701;51.798;19.474;2023-06-22T15:51:27;4.65;;;2.45;;
50733;SDS011;36701;51.798;19.474;2023-06-22T15:53:55;2.87;;;2.67;;
50733;SDS011;36701;51.798;19.474;2023-06-22T15:56:21;4.37;;;2.70;;
50733;SDS011;36701;51.798;19.474;2023-06-22T15:58:49;2.87;;;2.45;;
50733;SDS011;36701;51.798;19.474;2023-06-22T16:01:15;4.20;;;2.50;;
50733;SDS011;36701;51.798;19.474;2023-06-22T16:03:42;9.38;;;2.20;;
50733;SDS011;36701;51.798;19.474;2023-06-22T16:06:08;2.87;;;2.58;;
50733;SDS011;36701;51.798;19.474;2023-06-22T16:08:34;3.80;;;2.50;;
50733;SDS011;36701;51.798;19.474;2023-06-22T16:11:01;2.40;;;2.20;;
50733;SDS011;36701;51.798;19.474;2023-06-22T16:13:33;2.85;;;2.60;;
50733;SDS011;36701;51.798;19.474;2023-06-22T16:16:06;2.78;;;2.58;;
50733;SDS011;36701;51.798;19.474;2023-06-22T16:18:33;2.58;;;2.40;;
50733;SDS011;36701;51.798;19.474;2023-06-22T16:20:59;2.65;;;2.30;;
50733;SDS011;36701;51.798;19.474;2023-06-22T16:23:26;4.37;;;2.22;;
50733;SDS011;36701;51.798;19.474;2023-06-22T16:25:52;3.67;;;2.53;;
50733;SDS011;36701;51.798;19.474;2023-06-22T16:28:19;3.25;;;2.97;;
50733;SDS011;36701;51.798;19.474;2023-06-22T16:30:44;2.70;;;2.50;;
50733;SDS011;36701;51.798;19.474;2023-06-22T16:33:11;7.22;;;2.60;;
50733;SDS011;36701;51.798;19.474;2023-06-22T16:35:37;6.97;;;2.65;;